createdAt,value
2023-03-15T00:01:08.954Z,3.23
2023-03-15T00:06:12.963Z,3.27
2023-03-15T00:11:16.963Z,3.50
2023-03-15T00:16:19.940Z,2.23
2023-03-15T00:21:23.406Z,1.93
2023-03-15T00:26:26.175Z,1.53
2023-03-15T05:35:26.676Z,2.20
2023-03-15T05:40:30.294Z,2.17
2023-03-15T05:45:33.645Z,2.10
2023-03-15T05:50:36.603Z,1.83
2023-03-15T05:55:39.457Z,2.30
2023-03-15T06:00:42.244Z,2.43
2023-03-15T06:05:45.239Z,1.93
2023-03-15T06:10:48.022Z,2.47
2023-03-15T06:15:50.826Z,2.13
2023-03-15T06:20:53.642Z,2.60
2023-03-15T06:25:56.450Z,1.90
2023-03-15T06:30:59.318Z,1.87
2023-03-15T06:36:02.260Z,2.00
2023-03-15T06:41:05.357Z,1.60
2023-03-15T06:46:08.204Z,1.87
2023-03-15T06:51:11.154Z,2.27
2023-03-15T06:56:13.991Z,2.07
2023-03-15T07:01:16.914Z,1.47
2023-03-15T07:06:19.741Z,1.27
2023-03-15T07:11:22.623Z,1.90
2023-03-15T07:16:25.927Z,2.10
2023-03-15T07:21:29.241Z,1.80
2023-03-15T07:26:32.001Z,1.93
2023-03-15T07:31:34.801Z,1.50
2023-03-15T07:36:37.653Z,1.70
2023-03-15T07:41:40.398Z,2.13
2023-03-15T07:46:43.192Z,1.43
2023-03-15T07:51:46.079Z,1.40
2023-03-15T07:56:48.881Z,1.63
2023-03-15T08:01:51.690Z,1.57
2023-03-15T08:06:54.664Z,2.07
2023-03-15T08:11:57.358Z,2.20
2023-03-15T08:17:00.165Z,2.20
2023-03-15T08:22:03.258Z,2.33
2023-03-15T08:27:06.213Z,2.00
2023-03-15T08:32:09.337Z,2.50
2023-03-15T08:37:12.976Z,1.97
2023-03-15T08:42:15.806Z,1.67
2023-03-15T08:47:18.564Z,1.70
2023-03-15T08:52:21.920Z,1.50
2023-03-15T08:57:25.981Z,1.60
2023-03-15T09:02:29.609Z,2.40
2023-03-15T09:07:32.713Z,2.10
2023-03-15T09:12:35.791Z,1.60
2023-03-15T09:17:39.594Z,2.00
2023-03-15T09:22:43.544Z,1.53
2023-03-15T09:27:46.460Z,1.50
2023-03-15T09:32:49.355Z,1.20
2023-03-15T09:37:52.490Z,1.23
2023-03-15T09:43:06.777Z,1.40
2023-03-15T09:48:33.442Z,1.40
2023-03-15T09:54:01.857Z,1.50
2023-03-15T09:59:04.923Z,1.30
2023-03-15T10:04:34.599Z,1.17
2023-03-15T10:09:37.401Z,1.87
2023-03-15T10:15:14.934Z,1.50
2023-03-15T10:20:22.004Z,1.33
2023-03-15T10:25:32.579Z,1.77
2023-03-15T10:30:37.547Z,1.50
2023-03-15T10:35:42.840Z,1.00
2023-03-15T10:40:51.843Z,1.63
2023-03-15T10:46:11.583Z,1.27
2023-03-15T10:51:21.233Z,1.40
2023-03-15T10:56:29.518Z,1.57
2023-03-15T11:01:37.535Z,1.10
2023-03-15T11:06:59.605Z,1.30
2023-03-15T11:12:04.772Z,1.37
2023-03-15T11:17:15.847Z,1.27
2023-03-15T11:22:18.715Z,1.17
2023-03-15T11:27:23.623Z,1.30
2023-03-15T11:32:29.380Z,1.40
2023-03-15T11:38:06.147Z,0.87
2023-03-15T11:43:21.578Z,1.43
2023-03-15T11:48:42.402Z,1.40
2023-03-15T11:53:53.144Z,0.93
2023-03-15T11:59:15.462Z,0.90
2023-03-15T12:04:40.878Z,1.50
2023-03-15T12:09:49.745Z,1.20
2023-03-15T12:15:08.434Z,1.13
2023-03-15T12:20:37.828Z,1.30
2023-03-15T12:25:55.012Z,1.47
2023-03-15T12:31:01.850Z,1.70
2023-03-15T12:36:18.224Z,1.33
2023-03-15T12:41:41.318Z,1.20
2023-03-15T12:46:43.984Z,1.60
2023-03-15T12:51:59.519Z,1.00
2023-03-15T12:57:04.147Z,1.90
2023-03-15T13:02:42.070Z,1.67
2023-03-15T13:08:06.891Z,2.43
2023-03-15T13:13:27.746Z,2.13
2023-03-15T13:18:34.394Z,2.27
2023-03-15T13:23:38.735Z,1.30
2023-03-15T13:28:50.688Z,2.13
2023-03-15T13:33:58.964Z,2.50
2023-03-15T13:39:01.756Z,1.87
2023-03-15T13:44:12.909Z,1.70
2023-03-15T13:49:15.877Z,1.37
2023-03-15T13:54:29.105Z,1.40
2023-03-15T13:59:42.973Z,1.87
2023-03-15T14:04:53.273Z,1.93
2023-03-15T14:10:26.441Z,1.70
2023-03-15T14:15:37.441Z,1.33
2023-03-15T14:20:47.443Z,1.83
2023-03-15T14:26:02.245Z,1.37
2023-03-15T14:31:05.127Z,1.50
2023-03-15T14:36:21.665Z,1.70
2023-03-15T14:41:34.086Z,1.67
2023-03-15T14:46:37.166Z,1.30
2023-03-15T14:51:40.032Z,1.27
2023-03-15T14:56:44.498Z,2.07
2023-03-15T15:01:57.146Z,2.13
2023-03-15T15:07:00.233Z,1.30
2023-03-15T15:12:03.080Z,1.77
2023-03-15T15:17:06.184Z,1.90
2023-03-15T15:22:11.056Z,1.40
2023-03-15T15:27:14.451Z,1.27
2023-03-15T15:32:17.224Z,1.80
2023-03-15T15:37:19.992Z,1.37
2023-03-15T15:42:22.804Z,1.50
2023-03-15T15:47:25.586Z,1.50
2023-03-15T15:52:28.826Z,1.80
2023-03-15T15:57:31.833Z,1.53
2023-03-15T16:02:34.633Z,1.73
2023-03-15T16:07:40.758Z,1.90
2023-03-15T16:12:43.535Z,1.50
2023-03-15T16:17:47.136Z,1.30
2023-03-15T16:22:52.702Z,1.60
2023-03-15T16:27:56.462Z,1.70
2023-03-15T16:32:59.325Z,1.60
2023-03-15T16:38:02.705Z,1.97
2023-03-15T16:43:06.395Z,1.60
2023-03-15T16:48:09.300Z,1.70
2023-03-15T16:53:13.628Z,2.23
2023-03-15T16:58:19.964Z,1.90
2023-03-15T17:03:22.846Z,1.80
2023-03-15T17:08:25.842Z,2.30
2023-03-15T17:13:30.250Z,2.40
2023-03-15T17:18:34.364Z,2.00
2023-03-15T17:23:37.153Z,2.80
2023-03-15T17:28:41.046Z,2.60
2023-03-15T17:33:44.720Z,2.33
2023-03-15T17:38:48.115Z,3.27
2023-03-15T17:43:51.779Z,2.47
2023-03-15T17:48:56.017Z,2.77
2023-03-15T17:53:59.643Z,2.83
2023-03-15T17:59:02.461Z,3.13
2023-03-15T18:04:06.128Z,3.10
2023-03-15T18:09:17.928Z,3.83
2023-03-15T18:14:20.927Z,2.80
2023-03-15T18:19:23.748Z,3.30
2023-03-15T18:24:26.550Z,3.93
2023-03-15T18:29:29.348Z,5.70
2023-03-15T18:34:32.091Z,5.47
2023-03-15T18:39:34.932Z,6.67
2023-03-15T18:44:37.970Z,5.23
2023-03-15T18:49:41.032Z,5.30
2023-03-15T18:54:43.831Z,5.53
2023-03-15T18:59:46.924Z,6.20
2023-03-15T19:04:49.756Z,4.83
2023-03-15T19:09:52.586Z,6.03
2023-03-15T19:14:55.420Z,4.87
2023-03-15T19:19:58.321Z,4.23
2023-03-15T19:25:01.351Z,5.37
2023-03-15T19:30:07.394Z,7.40
2023-03-15T19:35:12.080Z,6.20
2023-03-15T19:40:16.028Z,5.57
2023-03-15T19:45:18.842Z,4.07
2023-03-15T19:50:21.755Z,4.40
2023-03-15T19:55:28.433Z,3.70
2023-03-15T20:00:32.370Z,4.57
2023-03-15T20:05:37.171Z,5.40
2023-03-15T20:10:39.951Z,4.57
2023-03-15T20:15:44.854Z,5.40
2023-03-15T20:20:47.648Z,5.90
2023-03-15T20:25:50.840Z,5.43
2023-03-15T20:30:53.807Z,5.07
2023-03-15T20:35:56.714Z,5.40
2023-03-15T20:40:59.695Z,5.17
2023-03-15T20:46:04.534Z,7.97
2023-03-15T20:51:07.384Z,7.40
2023-03-15T20:56:10.215Z,6.83
2023-03-15T21:01:15.045Z,7.13
2023-03-15T21:06:17.881Z,8.07
2023-03-15T21:11:20.656Z,6.13
2023-03-15T21:16:26.011Z,8.60
2023-03-15T21:21:29.775Z,6.63
2023-03-15T21:26:32.577Z,7.37
2023-03-15T21:31:36.607Z,7.83
2023-03-15T21:36:39.422Z,8.30
2023-03-15T21:41:42.224Z,7.57
2023-03-15T21:46:45.162Z,6.43
2023-03-15T21:51:48.025Z,5.23
2023-03-15T21:56:53.049Z,5.60
2023-03-15T22:01:59.128Z,5.43
2023-03-15T22:07:01.866Z,5.53
2023-03-15T22:12:08.347Z,5.27
2023-03-15T22:17:11.218Z,4.90
2023-03-15T22:22:14.025Z,3.93
2023-03-15T22:27:16.762Z,5.40
2023-03-15T22:32:19.599Z,4.13
2023-03-15T22:37:22.437Z,4.07
2023-03-15T22:42:25.206Z,4.37
2023-03-15T22:47:28.587Z,3.77
2023-03-15T22:52:31.334Z,4.83
2023-03-15T22:57:34.196Z,3.73
2023-03-15T23:02:37.070Z,3.57
2023-03-15T23:07:40.390Z,4.30
2023-03-15T23:12:43.457Z,4.00
2023-03-15T23:17:46.995Z,4.80
2023-03-15T23:22:50.357Z,3.33
2023-03-15T23:27:53.112Z,3.87
2023-03-15T23:32:58.857Z,3.97
2023-03-15T23:38:01.924Z,4.73
2023-03-15T23:43:05.931Z,4.27
2023-03-15T23:48:08.694Z,3.60
2023-03-15T23:53:11.483Z,4.83
2023-03-15T23:58:14.484Z,3.77
